Shingleton, Michigan
Current Conditions -  °F | °C
As of 1:54 PM on Friday 31 Oct 2014 (Local Time) from KISQ Reporting Station
Overcast Overcast  
Wind Chill: 24°   Ceiling: 4600
Heat Index: 35°   Visibility: 10mi
Dew Point: 22°   Wind: 21mph
Humidity: 59%   Direction: 10°N
Pressure: 30.29"   Gusts: 30mph
Location:  46.35°N, 86.47°W
Report Text: KISQ 311754Z AUTO 01018G26KT 10SM SCT038 OVC046 02/M06 A3029 RMK AO2 T00161056
Loading
Personal Weather Stations






























Interactive Weather Map
Tropical Storm Tracking
New forecast layout! Learn more

10-Day Weather Forecast

Advertisements
Track Severe Weather on mobile